sensor_id;sensor_type;location;lat;lon;timestamp;temperature;humidity
40996;DHT22;26723;57.478;12.066;2023-11-18T00:02:46;-0.60;99.90
40996;DHT22;26723;57.478;12.066;2023-11-18T00:05:55;-0.80;99.90
40996;DHT22;26723;57.478;12.066;2023-11-18T00:09:03;-0.80;99.90
40996;DHT22;26723;57.478;12.066;2023-11-18T00:12:13;-0.90;99.90
40996;DHT22;26723;57.478;12.066;2023-11-18T00:15:23;-1.00;99.90
40996;DHT22;26723;57.478;12.066;2023-11-18T00:18:32;-1.00;99.90
40996;DHT22;26723;57.478;12.066;2023-11-18T00:21:41;-1.10;99.90
40996;DHT22;26723;57.478;12.066;2023-11-18T00:24:51;-1.10;99.90
40996;DHT22;26723;57.478;12.066;2023-11-18T00:28:00;-1.10;99.90
40996;DHT22;26723;57.478;12.066;2023-11-18T00:31:10;-1.10;99.90
40996;DHT22;26723;57.478;12.066;2023-11-18T00:34:19;-1.20;99.90
40996;DHT22;26723;57.478;12.066;2023-11-18T00:37:28;-1.20;99.90
40996;DHT22;26723;57.478;12.066;2023-11-18T00:40:37;-1.20;99.90
40996;DHT22;26723;57.478;12.066;2023-11-18T00:43:45;-1.20;99.90
40996;DHT22;26723;57.478;12.066;2023-11-18T00:46:55;-1.20;99.90
40996;DHT22;26723;57.478;12.066;2023-11-18T00:50:05;-1.20;99.90
40996;DHT22;26723;57.478;12.066;2023-11-18T00:53:15;-1.30;99.90
40996;DHT22;26723;57.478;12.066;2023-11-18T00:56:24;-1.30;99.90
40996;DHT22;26723;57.478;12.066;2023-11-18T00:59:33;-1.30;99.90
40996;DHT22;26723;57.478;12.066;2023-11-18T01:02:43;-1.20;99.90
40996;DHT22;26723;57.478;12.066;2023-11-18T01:05:51;-1.20;99.90
40996;DHT22;26723;57.478;12.066;2023-11-18T01:09:00;-1.10;99.90
40996;DHT22;26723;57.478;12.066;2023-11-18T01:12:09;-1.00;99.90
40996;DHT22;26723;57.478;12.066;2023-11-18T01:15:18;-0.90;99.90
40996;DHT22;26723;57.478;12.066;2023-11-18T01:18:28;-0.90;99.90
40996;DHT22;26723;57.478;12.066;2023-11-18T01:21:37;-0.80;99.90
40996;DHT22;26723;57.478;12.066;2023-11-18T01:24:46;-0.90;99.90
40996;DHT22;26723;57.478;12.066;2023-11-18T01:27:55;-0.90;99.90
40996;DHT22;26723;57.478;12.066;2023-11-18T01:31:04;-0.90;99.90
40996;DHT22;26723;57.478;12.066;2023-11-18T01:34:15;-0.90;99.90
40996;DHT22;26723;57.478;12.066;2023-11-18T01:37:25;-0.90;99.90
40996;DHT22;26723;57.478;12.066;2023-11-18T01:40:34;-0.90;99.90
40996;DHT22;26723;57.478;12.066;2023-11-18T01:43:45;-0.80;99.90
40996;DHT22;26723;57.478;12.066;2023-11-18T01:46:54;-0.80;99.90
40996;DHT22;26723;57.478;12.066;2023-11-18T01:50:06;-0.70;99.90
40996;DHT22;26723;57.478;12.066;2023-11-18T01:53:16;-0.70;99.90
40996;DHT22;26723;57.478;12.066;2023-11-18T01:56:24;-0.60;99.90
40996;DHT22;26723;57.478;12.066;2023-11-18T01:59:33;-0.60;99.90
40996;DHT22;26723;57.478;12.066;2023-11-18T02:02:43;-0.60;99.90
40996;DHT22;26723;57.478;12.066;2023-11-18T02:05:53;-0.50;99.90
40996;DHT22;26723;57.478;12.066;2023-11-18T02:09:02;-0.50;99.90
40996;DHT22;26723;57.478;12.066;2023-11-18T02:12:23;-0.40;99.90
40996;DHT22;26723;57.478;12.066;2023-11-18T02:15:34;-0.40;99.90
40996;DHT22;26723;57.478;12.066;2023-11-18T02:18:44;-0.40;99.90
40996;DHT22;26723;57.478;12.066;2023-11-18T02:21:55;-0.40;99.90
40996;DHT22;26723;57.478;12.066;2023-11-18T02:25:07;-0.40;99.90
40996;DHT22;26723;57.478;12.066;2023-11-18T02:28:19;-0.40;99.90
40996;DHT22;26723;57.478;12.066;2023-11-18T02:31:33;-0.40;99.90
40996;DHT22;26723;57.478;12.066;2023-11-18T02:34:51;-0.40;99.90
40996;DHT22;26723;57.478;12.066;2023-11-18T02:38:02;-0.40;99.90
40996;DHT22;26723;57.478;12.066;2023-11-18T02:41:15;-0.40;99.90
40996;DHT22;26723;57.478;12.066;2023-11-18T02:44:28;-0.40;99.90
40996;DHT22;26723;57.478;12.066;2023-11-18T02:47:39;-0.40;99.90
40996;DHT22;26723;57.478;12.066;2023-11-18T02:50:48;-0.40;99.90
40996;DHT22;26723;57.478;12.066;2023-11-18T02:53:56;-0.40;99.90
40996;DHT22;26723;57.478;12.066;2023-11-18T02:57:05;-0.40;99.90
40996;DHT22;26723;57.478;12.066;2023-11-18T03:00:17;-0.40;99.90
40996;DHT22;26723;57.478;12.066;2023-11-18T03:03:29;-0.40;99.90
40996;DHT22;26723;57.478;12.066;2023-11-18T03:06:38;-0.40;99.90
40996;DHT22;26723;57.478;12.066;2023-11-18T03:09:47;-0.40;99.90
40996;DHT22;26723;57.478;12.066;2023-11-18T03:12:56;-0.50;99.90
40996;DHT22;26723;57.478;12.066;2023-11-18T03:16:08;-0.40;99.90
40996;DHT22;26723;57.478;12.066;2023-11-18T03:19:18;-0.50;99.90
40996;DHT22;26723;57.478;12.066;2023-11-18T03:22:27;-0.50;99.90
40996;DHT22;26723;57.478;12.066;2023-11-18T03:25:35;-0.50;99.90
40996;DHT22;26723;57.478;12.066;2023-11-18T03:28:45;-0.50;99.90
40996;DHT22;26723;57.478;12.066;2023-11-18T03:31:55;-0.50;99.90
40996;DHT22;26723;57.478;12.066;2023-11-18T03:35:05;-0.50;99.90
40996;DHT22;26723;57.478;12.066;2023-11-18T03:38:17;-0.50;99.90
40996;DHT22;26723;57.478;12.066;2023-11-18T03:41:25;-0.50;99.90
40996;DHT22;26723;57.478;12.066;2023-11-18T03:44:33;-0.60;99.90
40996;DHT22;26723;57.478;12.066;2023-11-18T03:47:44;-0.40;99.90
40996;DHT22;26723;57.478;12.066;2023-11-18T03:50:54;-0.40;99.90
40996;DHT22;26723;57.478;12.066;2023-11-18T03:54:02;-0.40;99.90
40996;DHT22;26723;57.478;12.066;2023-11-18T03:57:11;-0.40;99.90
40996;DHT22;26723;57.478;12.066;2023-11-18T04:00:20;-0.40;99.90
40996;DHT22;26723;57.478;12.066;2023-11-18T04:03:30;-0.50;99.90
40996;DHT22;26723;57.478;12.066;2023-11-18T04:06:39;-0.60;99.90
40996;DHT22;26723;57.478;12.066;2023-11-18T04:09:47;-0.60;99.90
40996;DHT22;26723;57.478;12.066;2023-11-18T04:12:56;-0.50;99.90
40996;DHT22;26723;57.478;12.066;2023-11-18T04:16:05;-0.50;99.90
40996;DHT22;26723;57.478;12.066;2023-11-18T04:19:15;-0.50;99.90
40996;DHT22;26723;57.478;12.066;2023-11-18T04:22:24;-0.50;99.90
40996;DHT22;26723;57.478;12.066;2023-11-18T04:25:33;-0.50;99.90
40996;DHT22;26723;57.478;12.066;2023-11-18T04:28:42;-0.60;99.90
40996;DHT22;26723;57.478;12.066;2023-11-18T04:31:51;-0.70;99.90
40996;DHT22;26723;57.478;12.066;2023-11-18T04:35:02;-0.70;99.90
40996;DHT22;26723;57.478;12.066;2023-11-18T04:38:14;-0.70;99.90
40996;DHT22;26723;57.478;12.066;2023-11-18T04:41:23;-0.70;99.90
40996;DHT22;26723;57.478;12.066;2023-11-18T04:44:31;-0.70;99.90
40996;DHT22;26723;57.478;12.066;2023-11-18T04:47:40;-0.80;99.90
40996;DHT22;26723;57.478;12.066;2023-11-18T04:50:51;-0.70;99.90
40996;DHT22;26723;57.478;12.066;2023-11-18T04:54:00;-0.80;99.90
40996;DHT22;26723;57.478;12.066;2023-11-18T04:57:10;-0.80;99.90
40996;DHT22;26723;57.478;12.066;2023-11-18T05:00:19;-0.90;99.90
40996;DHT22;26723;57.478;12.066;2023-11-18T05:03:27;-0.90;99.90
40996;DHT22;26723;57.478;12.066;2023-11-18T05:06:39;-0.80;99.90
40996;DHT22;26723;57.478;12.066;2023-11-18T05:09:47;-0.70;99.90
40996;DHT22;26723;57.478;12.066;2023-11-18T05:12:56;-0.80;99.90
40996;DHT22;26723;57.478;12.066;2023-11-18T05:16:05;-0.80;99.90
40996;DHT22;26723;57.478;12.066;2023-11-18T05:19:14;-0.80;99.90
40996;DHT22;26723;57.478;12.066;2023-11-18T05:22:25;-0.80;99.90
40996;DHT22;26723;57.478;12.066;2023-11-18T05:25:33;-0.80;99.90
40996;DHT22;26723;57.478;12.066;2023-11-18T05:28:42;-0.80;99.90
40996;DHT22;26723;57.478;12.066;2023-11-18T05:31:52;-0.70;99.90
40996;DHT22;26723;57.478;12.066;2023-11-18T05:35:02;-0.80;99.90
40996;DHT22;26723;57.478;12.066;2023-11-18T05:38:13;-0.90;99.90
40996;DHT22;26723;57.478;12.066;2023-11-18T05:41:23;-0.90;99.90
40996;DHT22;26723;57.478;12.066;2023-11-18T05:44:37;-0.90;99.90
40996;DHT22;26723;57.478;12.066;2023-11-18T05:47:46;-0.90;99.90
40996;DHT22;26723;57.478;12.066;2023-11-18T05:50:55;-0.90;99.90
40996;DHT22;26723;57.478;12.066;2023-11-18T05:54:05;-0.90;99.90
40996;DHT22;26723;57.478;12.066;2023-11-18T05:57:14;-0.90;99.90
40996;DHT22;26723;57.478;12.066;2023-11-18T06:00:23;-0.80;99.90
40996;DHT22;26723;57.478;12.066;2023-11-18T06:03:42;-0.70;99.90
40996;DHT22;26723;57.478;12.066;2023-11-18T06:06:51;-0.80;99.90
40996;DHT22;26723;57.478;12.066;2023-11-18T06:10:01;-0.70;99.90
40996;DHT22;26723;57.478;12.066;2023-11-18T06:13:12;-0.70;99.90
40996;DHT22;26723;57.478;12.066;2023-11-18T06:16:21;-0.80;99.90
40996;DHT22;26723;57.478;12.066;2023-11-18T06:19:31;-0.80;99.90
40996;DHT22;26723;57.478;12.066;2023-11-18T06:22:40;-0.70;99.90
40996;DHT22;26723;57.478;12.066;2023-11-18T06:25:50;-0.70;99.90
40996;DHT22;26723;57.478;12.066;2023-11-18T06:28:58;-0.80;99.90
40996;DHT22;26723;57.478;12.066;2023-11-18T06:32:07;-0.80;99.90
40996;DHT22;26723;57.478;12.066;2023-11-18T06:35:15;-0.80;99.90
40996;DHT22;26723;57.478;12.066;2023-11-18T06:38:24;-0.80;99.90
40996;DHT22;26723;57.478;12.066;2023-11-18T06:41:34;-0.70;99.90
40996;DHT22;26723;57.478;12.066;2023-11-18T06:44:45;-0.80;99.90
40996;DHT22;26723;57.478;12.066;2023-11-18T06:47:56;-0.70;99.90
40996;DHT22;26723;57.478;12.066;2023-11-18T06:51:06;-0.70;99.90
40996;DHT22;26723;57.478;12.066;2023-11-18T06:54:15;-0.70;99.90
40996;DHT22;26723;57.478;12.066;2023-11-18T06:57:24;-0.70;99.90
40996;DHT22;26723;57.478;12.066;2023-11-18T07:00:33;-0.70;99.90
40996;DHT22;26723;57.478;12.066;2023-11-18T07:03:44;-0.70;99.90
40996;DHT22;26723;57.478;12.066;2023-11-18T07:06:55;-0.70;99.90
40996;DHT22;26723;57.478;12.066;2023-11-18T07:10:05;-0.60;99.90
40996;DHT22;26723;57.478;12.066;2023-11-18T07:13:15;-0.60;99.90
40996;DHT22;26723;57.478;12.066;2023-11-18T07:16:25;-0.60;99.90
40996;DHT22;26723;57.478;12.066;2023-11-18T07:19:34;-0.50;99.90
40996;DHT22;26723;57.478;12.066;2023-11-18T07:22:42;-0.40;99.90
40996;DHT22;26723;57.478;12.066;2023-11-18T07:25:51;-0.30;99.90
40996;DHT22;26723;57.478;12.066;2023-11-18T07:29:02;-0.30;99.90
40996;DHT22;26723;57.478;12.066;2023-11-18T07:32:11;-0.40;99.90
40996;DHT22;26723;57.478;12.066;2023-11-18T07:35:21;-0.40;99.90
40996;DHT22;26723;57.478;12.066;2023-11-18T07:38:30;-0.30;99.90
40996;DHT22;26723;57.478;12.066;2023-11-18T07:41:39;-0.20;99.90
40996;DHT22;26723;57.478;12.066;2023-11-18T07:44:49;-0.20;99.90
40996;DHT22;26723;57.478;12.066;2023-11-18T07:48:01;-0.10;99.90
40996;DHT22;26723;57.478;12.066;2023-11-18T07:51:13;-0.10;99.90
40996;DHT22;26723;57.478;12.066;2023-11-18T07:54:22;0.00;99.90
40996;DHT22;26723;57.478;12.066;2023-11-18T07:57:30;0.00;99.90
40996;DHT22;26723;57.478;12.066;2023-11-18T08:00:44;0.00;99.90
40996;DHT22;26723;57.478;12.066;2023-11-18T08:03:53;0.00;99.90
40996;DHT22;26723;57.478;12.066;2023-11-18T08:07:03;0.00;99.90
40996;DHT22;26723;57.478;12.066;2023-11-18T08:10:13;0.00;99.90
40996;DHT22;26723;57.478;12.066;2023-11-18T08:13:26;0.00;99.90
40996;DHT22;26723;57.478;12.066;2023-11-18T08:16:36;0.10;99.90
40996;DHT22;26723;57.478;12.066;2023-11-18T08:19:45;0.10;99.90
40996;DHT22;26723;57.478;12.066;2023-11-18T08:22:54;0.10;99.90
40996;DHT22;26723;57.478;12.066;2023-11-18T08:26:04;0.10;99.90
40996;DHT22;26723;57.478;12.066;2023-11-18T08:29:13;0.20;99.90
40996;DHT22;26723;57.478;12.066;2023-11-18T08:32:24;0.20;99.90
40996;DHT22;26723;57.478;12.066;2023-11-18T08:35:38;0.30;99.90
40996;DHT22;26723;57.478;12.066;2023-11-18T08:39:03;0.30;99.90
40996;DHT22;26723;57.478;12.066;2023-11-18T08:42:18;0.40;99.90
40996;DHT22;26723;57.478;12.066;2023-11-18T08:45:29;0.40;99.90
40996;DHT22;26723;57.478;12.066;2023-11-18T08:48:43;0.40;99.90
40996;DHT22;26723;57.478;12.066;2023-11-18T08:51:52;0.50;99.90
40996;DHT22;26723;57.478;12.066;2023-11-18T08:55:04;0.50;99.90
40996;DHT22;26723;57.478;12.066;2023-11-18T08:58:27;0.50;99.90
40996;DHT22;26723;57.478;12.066;2023-11-18T09:01:42;0.50;99.90
40996;DHT22;26723;57.478;12.066;2023-11-18T09:04:55;0.60;99.90
40996;DHT22;26723;57.478;12.066;2023-11-18T09:08:05;0.60;99.90
40996;DHT22;26723;57.478;12.066;2023-11-18T09:11:19;0.60;99.90
40996;DHT22;26723;57.478;12.066;2023-11-18T09:14:31;0.60;99.90
40996;DHT22;26723;57.478;12.066;2023-11-18T09:17:41;0.60;99.90
40996;DHT22;26723;57.478;12.066;2023-11-18T09:20:53;0.70;99.90
40996;DHT22;26723;57.478;12.066;2023-11-18T09:24:04;0.70;99.90
40996;DHT22;26723;57.478;12.066;2023-11-18T09:27:18;0.70;99.90
40996;DHT22;26723;57.478;12.066;2023-11-18T09:30:26;0.80;99.90
40996;DHT22;26723;57.478;12.066;2023-11-18T09:33:38;0.80;99.90
40996;DHT22;26723;57.478;12.066;2023-11-18T09:36:55;0.90;99.90
40996;DHT22;26723;57.478;12.066;2023-11-18T09:40:05;0.90;99.90
40996;DHT22;26723;57.478;12.066;2023-11-18T09:43:19;0.90;99.90
40996;DHT22;26723;57.478;12.066;2023-11-18T09:46:29;1.00;99.90
40996;DHT22;26723;57.478;12.066;2023-11-18T09:49:44;1.00;99.90
40996;DHT22;26723;57.478;12.066;2023-11-18T09:52:59;1.00;99.90
40996;DHT22;26723;57.478;12.066;2023-11-18T09:56:14;1.00;99.90
40996;DHT22;26723;57.478;12.066;2023-11-18T09:59:38;1.10;99.90
40996;DHT22;26723;57.478;12.066;2023-11-18T10:02:53;1.10;99.90
40996;DHT22;26723;57.478;12.066;2023-11-18T10:06:05;1.20;99.90
40996;DHT22;26723;57.478;12.066;2023-11-18T10:09:15;1.30;99.90
40996;DHT22;26723;57.478;12.066;2023-11-18T10:12:26;1.40;99.90
40996;DHT22;26723;57.478;12.066;2023-11-18T10:15:37;1.50;99.90
40996;DHT22;26723;57.478;12.066;2023-11-18T10:18:46;1.60;99.90
40996;DHT22;26723;57.478;12.066;2023-11-18T10:21:59;1.60;99.90
40996;DHT22;26723;57.478;12.066;2023-11-18T10:25:24;1.70;99.90
40996;DHT22;26723;57.478;12.066;2023-11-18T10:28:34;2.20;99.90
40996;DHT22;26723;57.478;12.066;2023-11-18T10:31:45;2.40;99.90
40996;DHT22;26723;57.478;12.066;2023-11-18T10:34:55;2.60;99.90
40996;DHT22;26723;57.478;12.066;2023-11-18T10:38:04;2.80;99.90
40996;DHT22;26723;57.478;12.066;2023-11-18T10:41:14;3.00;99.90
40996;DHT22;26723;57.478;12.066;2023-11-18T10:44:24;2.90;99.90
40996;DHT22;26723;57.478;12.066;2023-11-18T10:47:33;3.00;99.90
40996;DHT22;26723;57.478;12.066;2023-11-18T10:50:46;3.00;99.90
40996;DHT22;26723;57.478;12.066;2023-11-18T10:53:55;3.00;99.90
40996;DHT22;26723;57.478;12.066;2023-11-18T10:57:08;3.10;99.90
40996;DHT22;26723;57.478;12.066;2023-11-18T11:00:17;3.20;99.90
40996;DHT22;26723;57.478;12.066;2023-11-18T11:03:26;3.30;99.90
40996;DHT22;26723;57.478;12.066;2023-11-18T11:06:42;3.20;99.90
40996;DHT22;26723;57.478;12.066;2023-11-18T11:09:50;3.20;99.90
40996;DHT22;26723;57.478;12.066;2023-11-18T11:13:06;3.40;99.90
40996;DHT22;26723;57.478;12.066;2023-11-18T11:16:19;3.50;99.90
40996;DHT22;26723;57.478;12.066;2023-11-18T11:19:34;3.60;99.90
40996;DHT22;26723;57.478;12.066;2023-11-18T11:23:00;3.60;99.90
40996;DHT22;26723;57.478;12.066;2023-11-18T11:26:23;3.80;99.90
40996;DHT22;26723;57.478;12.066;2023-11-18T11:29:45;3.80;99.90
40996;DHT22;26723;57.478;12.066;2023-11-18T11:33:14;3.80;99.90
40996;DHT22;26723;57.478;12.066;2023-11-18T11:36:30;3.90;99.90
40996;DHT22;26723;57.478;12.066;2023-11-18T11:39:43;3.80;99.90
40996;DHT22;26723;57.478;12.066;2023-11-18T11:42:54;3.50;99.90
40996;DHT22;26723;57.478;12.066;2023-11-18T11:46:04;3.40;99.90
40996;DHT22;26723;57.478;12.066;2023-11-18T11:49:18;3.20;99.90
40996;DHT22;26723;57.478;12.066;2023-11-18T11:52:31;3.20;99.90
40996;DHT22;26723;57.478;12.066;2023-11-18T11:55:47;3.20;99.90
40996;DHT22;26723;57.478;12.066;2023-11-18T11:58:59;3.10;99.90
40996;DHT22;26723;57.478;12.066;2023-11-18T12:02:12;3.00;99.90
40996;DHT22;26723;57.478;12.066;2023-11-18T12:05:24;3.10;99.90
40996;DHT22;26723;57.478;12.066;2023-11-18T12:08:35;3.00;99.90
40996;DHT22;26723;57.478;12.066;2023-11-18T12:11:46;2.90;99.90
40996;DHT22;26723;57.478;12.066;2023-11-18T12:14:57;2.90;99.90
40996;DHT22;26723;57.478;12.066;2023-11-18T12:18:14;2.90;99.90
40996;DHT22;26723;57.478;12.066;2023-11-18T12:21:55;2.80;99.90
40996;DHT22;26723;57.478;12.066;2023-11-18T12:25:31;2.80;99.90
40996;DHT22;26723;57.478;12.066;2023-11-18T12:28:43;2.80;99.90
40996;DHT22;26723;57.478;12.066;2023-11-18T12:31:54;2.80;99.90
40996;DHT22;26723;57.478;12.066;2023-11-18T12:35:06;2.80;99.90
40996;DHT22;26723;57.478;12.066;2023-11-18T12:38:51;2.90;99.90
40996;DHT22;26723;57.478;12.066;2023-11-18T12:42:07;3.00;99.90
40996;DHT22;26723;57.478;12.066;2023-11-18T12:49:22;3.10;99.90
40996;DHT22;26723;57.478;12.066;2023-11-18T12:52:33;3.10;99.90
40996;DHT22;26723;57.478;12.066;2023-11-18T12:55:42;3.20;99.90
40996;DHT22;26723;57.478;12.066;2023-11-18T12:58:51;3.20;99.90
40996;DHT22;26723;57.478;12.066;2023-11-18T13:02:01;3.20;99.90
40996;DHT22;26723;57.478;12.066;2023-11-18T13:05:11;3.10;99.90
40996;DHT22;26723;57.478;12.066;2023-11-18T13:08:22;3.10;99.90
40996;DHT22;26723;57.478;12.066;2023-11-18T13:11:31;3.00;99.90
40996;DHT22;26723;57.478;12.066;2023-11-18T13:14:41;2.90;99.90
40996;DHT22;26723;57.478;12.066;2023-11-18T13:17:57;2.90;99.90
40996;DHT22;26723;57.478;12.066;2023-11-18T13:21:06;2.90;99.90
40996;DHT22;26723;57.478;12.066;2023-11-18T13:24:19;2.90;99.90
40996;DHT22;26723;57.478;12.066;2023-11-18T13:27:28;2.90;99.90
40996;DHT22;26723;57.478;12.066;2023-11-18T13:30:40;2.90;99.90
40996;DHT22;26723;57.478;12.066;2023-11-18T13:33:50;2.80;99.90
40996;DHT22;26723;57.478;12.066;2023-11-18T13:37:00;2.80;99.90
40996;DHT22;26723;57.478;12.066;2023-11-18T13:40:12;2.80;99.90
40996;DHT22;26723;57.478;12.066;2023-11-18T13:43:21;2.80;99.90
40996;DHT22;26723;57.478;12.066;2023-11-18T13:46:30;2.80;99.90
40996;DHT22;26723;57.478;12.066;2023-11-18T13:49:40;2.80;99.90
40996;DHT22;26723;57.478;12.066;2023-11-18T13:52:48;2.80;99.90
40996;DHT22;26723;57.478;12.066;2023-11-18T13:55:59;2.80;99.90
40996;DHT22;26723;57.478;12.066;2023-11-18T13:59:09;2.70;99.90
40996;DHT22;26723;57.478;12.066;2023-11-18T14:02:18;2.60;99.90
40996;DHT22;26723;57.478;12.066;2023-11-18T14:05:28;2.60;99.90
40996;DHT22;26723;57.478;12.066;2023-11-18T14:08:37;2.50;99.90
40996;DHT22;26723;57.478;12.066;2023-11-18T14:11:47;2.50;99.90
40996;DHT22;26723;57.478;12.066;2023-11-18T14:14:56;2.40;99.90
40996;DHT22;26723;57.478;12.066;2023-11-18T14:18:05;2.30;99.90
40996;DHT22;26723;57.478;12.066;2023-11-18T14:21:15;2.20;99.90
40996;DHT22;26723;57.478;12.066;2023-11-18T14:24:23;2.10;99.90
40996;DHT22;26723;57.478;12.066;2023-11-18T14:27:36;2.00;99.90
40996;DHT22;26723;57.478;12.066;2023-11-18T14:30:44;1.90;99.90
40996;DHT22;26723;57.478;12.066;2023-11-18T14:33:53;1.90;99.90
40996;DHT22;26723;57.478;12.066;2023-11-18T14:37:05;1.80;99.90
40996;DHT22;26723;57.478;12.066;2023-11-18T14:40:15;1.80;99.90
40996;DHT22;26723;57.478;12.066;2023-11-18T14:43:25;1.70;99.90
40996;DHT22;26723;57.478;12.066;2023-11-18T14:46:35;1.60;99.90
40996;DHT22;26723;57.478;12.066;2023-11-18T14:49:47;1.50;99.90
40996;DHT22;26723;57.478;12.066;2023-11-18T14:52:56;1.40;99.90
40996;DHT22;26723;57.478;12.066;2023-11-18T14:56:08;1.40;99.90
40996;DHT22;26723;57.478;12.066;2023-11-18T14:59:18;1.30;99.90
40996;DHT22;26723;57.478;12.066;2023-11-18T15:02:29;1.20;99.90
40996;DHT22;26723;57.478;12.066;2023-11-18T15:05:38;1.10;99.90
40996;DHT22;26723;57.478;12.066;2023-11-18T15:08:46;1.10;99.90
40996;DHT22;26723;57.478;12.066;2023-11-18T15:11:56;1.00;99.90
40996;DHT22;26723;57.478;12.066;2023-11-18T15:15:07;1.00;99.90
40996;DHT22;26723;57.478;12.066;2023-11-18T15:18:24;1.10;99.90
40996;DHT22;26723;57.478;12.066;2023-11-18T15:21:32;1.10;99.90
40996;DHT22;26723;57.478;12.066;2023-11-18T15:24:41;1.10;99.90
40996;DHT22;26723;57.478;12.066;2023-11-18T15:27:50;1.10;99.90
40996;DHT22;26723;57.478;12.066;2023-11-18T15:31:00;1.00;99.90
40996;DHT22;26723;57.478;12.066;2023-11-18T15:34:09;1.00;99.90
40996;DHT22;26723;57.478;12.066;2023-11-18T15:37:19;1.00;99.90
40996;DHT22;26723;57.478;12.066;2023-11-18T15:40:27;0.90;99.90
40996;DHT22;26723;57.478;12.066;2023-11-18T15:43:36;0.90;99.90
40996;DHT22;26723;57.478;12.066;2023-11-18T15:46:48;0.90;99.90
40996;DHT22;26723;57.478;12.066;2023-11-18T15:49:57;0.90;99.90
40996;DHT22;26723;57.478;12.066;2023-11-18T15:53:07;0.80;99.90
40996;DHT22;26723;57.478;12.066;2023-11-18T15:56:16;0.70;99.90
40996;DHT22;26723;57.478;12.066;2023-11-18T15:59:26;0.70;99.90
40996;DHT22;26723;57.478;12.066;2023-11-18T16:02:36;0.70;99.90
40996;DHT22;26723;57.478;12.066;2023-11-18T16:05:45;0.70;99.90
40996;DHT22;26723;57.478;12.066;2023-11-18T16:08:53;0.60;99.90
40996;DHT22;26723;57.478;12.066;2023-11-18T16:12:02;0.60;99.90
40996;DHT22;26723;57.478;12.066;2023-11-18T16:15:11;0.70;99.90
40996;DHT22;26723;57.478;12.066;2023-11-18T16:18:22;0.70;99.90
40996;DHT22;26723;57.478;12.066;2023-11-18T16:21:37;0.70;99.90
40996;DHT22;26723;57.478;12.066;2023-11-18T16:24:48;0.60;99.90
40996;DHT22;26723;57.478;12.066;2023-11-18T16:27:59;0.60;99.90
40996;DHT22;26723;57.478;12.066;2023-11-18T16:31:10;0.50;99.90
40996;DHT22;26723;57.478;12.066;2023-11-18T16:34:19;0.60;99.90
40996;DHT22;26723;57.478;12.066;2023-11-18T16:37:29;0.50;99.90
40996;DHT22;26723;57.478;12.066;2023-11-18T16:40:38;0.60;99.90
40996;DHT22;26723;57.478;12.066;2023-11-18T16:43:46;0.60;99.90
40996;DHT22;26723;57.478;12.066;2023-11-18T16:46:55;0.50;99.90
40996;DHT22;26723;57.478;12.066;2023-11-18T16:50:06;0.50;99.90
40996;DHT22;26723;57.478;12.066;2023-11-18T16:53:15;0.50;99.90
40996;DHT22;26723;57.478;12.066;2023-11-18T16:56:25;0.50;99.90
40996;DHT22;26723;57.478;12.066;2023-11-18T16:59:35;0.50;99.90
40996;DHT22;26723;57.478;12.066;2023-11-18T17:02:43;0.50;99.90
40996;DHT22;26723;57.478;12.066;2023-11-18T17:05:54;0.50;99.90
40996;DHT22;26723;57.478;12.066;2023-11-18T17:09:02;0.50;99.90
40996;DHT22;26723;57.478;12.066;2023-11-18T17:12:12;0.50;99.90
40996;DHT22;26723;57.478;12.066;2023-11-18T17:15:21;0.50;99.90
40996;DHT22;26723;57.478;12.066;2023-11-18T17:18:30;0.50;99.90
40996;DHT22;26723;57.478;12.066;2023-11-18T17:21:43;0.40;99.90
40996;DHT22;26723;57.478;12.066;2023-11-18T17:24:51;0.40;99.90
40996;DHT22;26723;57.478;12.066;2023-11-18T17:28:02;0.40;99.90
40996;DHT22;26723;57.478;12.066;2023-11-18T17:31:11;0.40;99.90
40996;DHT22;26723;57.478;12.066;2023-11-18T17:34:20;0.40;99.90
40996;DHT22;26723;57.478;12.066;2023-11-18T17:37:30;0.30;99.90
40996;DHT22;26723;57.478;12.066;2023-11-18T17:40:38;0.30;99.90
40996;DHT22;26723;57.478;12.066;2023-11-18T17:43:48;0.20;99.90
40996;DHT22;26723;57.478;12.066;2023-11-18T17:46:57;0.10;99.90
40996;DHT22;26723;57.478;12.066;2023-11-18T17:50:06;0.10;99.90
40996;DHT22;26723;57.478;12.066;2023-11-18T17:53:20;0.10;99.90
40996;DHT22;26723;57.478;12.066;2023-11-18T17:56:30;0.00;99.90
40996;DHT22;26723;57.478;12.066;2023-11-18T17:59:39;0.00;99.90
40996;DHT22;26723;57.478;12.066;2023-11-18T18:02:47;0.00;99.90
40996;DHT22;26723;57.478;12.066;2023-11-18T18:05:56;0.00;99.90
40996;DHT22;26723;57.478;12.066;2023-11-18T18:09:06;0.00;99.90
40996;DHT22;26723;57.478;12.066;2023-11-18T18:12:16;0.00;99.90
40996;DHT22;26723;57.478;12.066;2023-11-18T18:15:25;0.00;99.90
40996;DHT22;26723;57.478;12.066;2023-11-18T18:18:34;-0.10;99.90
40996;DHT22;26723;57.478;12.066;2023-11-18T18:21:43;-0.10;99.90
40996;DHT22;26723;57.478;12.066;2023-11-18T18:24:54;-0.10;99.90
40996;DHT22;26723;57.478;12.066;2023-11-18T18:28:03;-0.10;99.90
40996;DHT22;26723;57.478;12.066;2023-11-18T18:31:11;-0.20;99.90
40996;DHT22;26723;57.478;12.066;2023-11-18T18:34:20;-0.20;99.90
40996;DHT22;26723;57.478;12.066;2023-11-18T18:37:28;-0.20;99.90
40996;DHT22;26723;57.478;12.066;2023-11-18T18:40:38;-0.20;99.90
40996;DHT22;26723;57.478;12.066;2023-11-18T18:43:47;-0.10;99.90
40996;DHT22;26723;57.478;12.066;2023-11-18T18:46:55;-0.10;99.90
40996;DHT22;26723;57.478;12.066;2023-11-18T18:50:05;-0.10;99.90
40996;DHT22;26723;57.478;12.066;2023-11-18T18:53:14;-0.10;99.90
40996;DHT22;26723;57.478;12.066;2023-11-18T18:56:26;-0.10;99.90
40996;DHT22;26723;57.478;12.066;2023-11-18T18:59:36;-0.10;99.90
40996;DHT22;26723;57.478;12.066;2023-11-18T19:02:45;-0.10;99.90
40996;DHT22;26723;57.478;12.066;2023-11-18T19:05:57;-0.10;99.90
40996;DHT22;26723;57.478;12.066;2023-11-18T19:09:06;0.00;99.90
40996;DHT22;26723;57.478;12.066;2023-11-18T19:12:17;0.00;99.90
40996;DHT22;26723;57.478;12.066;2023-11-18T19:15:26;0.00;99.90
40996;DHT22;26723;57.478;12.066;2023-11-18T19:18:34;0.00;99.90
40996;DHT22;26723;57.478;12.066;2023-11-18T19:21:44;0.00;99.90
40996;DHT22;26723;57.478;12.066;2023-11-18T19:24:58;0.00;99.90
40996;DHT22;26723;57.478;12.066;2023-11-18T19:28:07;0.00;99.90
40996;DHT22;26723;57.478;12.066;2023-11-18T19:31:43;0.00;99.90
40996;DHT22;26723;57.478;12.066;2023-11-18T19:34:52;0.00;99.90
40996;DHT22;26723;57.478;12.066;2023-11-18T19:38:00;0.00;99.90
40996;DHT22;26723;57.478;12.066;2023-11-18T19:41:13;0.00;99.90
40996;DHT22;26723;57.478;12.066;2023-11-18T19:44:22;-0.10;99.90
40996;DHT22;26723;57.478;12.066;2023-11-18T19:47:32;-0.10;99.90
40996;DHT22;26723;57.478;12.066;2023-11-18T19:50:42;0.00;99.90
40996;DHT22;26723;57.478;12.066;2023-11-18T19:53:50;-0.10;99.90
40996;DHT22;26723;57.478;12.066;2023-11-18T19:56:59;-0.10;99.90
40996;DHT22;26723;57.478;12.066;2023-11-18T20:00:08;-0.10;99.90
40996;DHT22;26723;57.478;12.066;2023-11-18T20:03:22;-0.10;99.90